Portada
METAR-TAF:

METAR-TAF

Aeropuertos :

Gioia del Colle, Italia

latitud: 40-46N, longitud: 016-56E, altitud: 345 m

Observación

El informe se hizo hace 1 hora y 28 minutos, a las 23:55 UTC
Viento calma
Temperatura 2°C
Humedad 93%
Presión 1012 hPa
Visibilidad 10 km o más
sin nubes por debajo de 1500 m y sin presencia de cumulonimbus.

METAR: LIBV 022355Z 00000KT CAVOK 02/01 Q1012 RMK SKC VIS MIN 9999 WIND THR32 00000KT WIND THR14 00000KT BLU

Hora: 03:23 (01:23 UTC)

Pronóstico

El informe se hizo hace 2 horas y 23 minutos, a las 23:00 UTC
Pronóstico válido del 03 a las 00 UTC al 03 a las 09 UTC
Viento 2 kt del norte-noreste
Visibilidad 10 km o más
Nubes dispersas a una altura de 5000 ft

TAF: LIBV 022300Z 0300/0309 02002KT 9999 SCT050

Observaciones y pronósticos meteorológicos de más de 4000 aeropuertos (mensajes METAR y TAF).

Los puntos amarillos y rojos representan las estaciones disponibles.

Ponga el ratón en el punto deseado para ver el nombre de la estación.

Haga clic para ver las observaciones y los pronósticos meteorológicos.

Para cambiar el mapa : haga clic en los botones verdes con una cruz de color negro para hacer un zoom, en el botón verde con un guión para alejar o en las flechas verdes para mapas adyacentes.


METAR-TAF: